Cap Felix — ONFH — position and weather

sailwx.info

Track history (hours):
 
Tides and Currents Weather Stations Pressure Air Temp Water Temp Dewpoint Dewpoint Depression Visibility Wind Speed Wind Dir Waves Ship Positions

Cap Felix

Last reported at 2015-Apr-01 02:33 UTC. Time now 2015-May-27 07:57 UTC.
Position N 49°46' W 000°46'.
Warning: this ship's position is 56 days out of date.

Length 275 m; draft 8.9 m.

Type: Tanker. MMSI: 205517000.

Date/timePositionNaut miles runAvg speedWind from/ knotsBaromVisibWave heightAir tempDewpointWater temp
2015-Apr-01 02:33N 49°46' W 000°46'1312.7
2015-Apr-01 01:33N 49°39' W 000°29'1312.8
2015-Apr-01 00:33N 49°33' W 000°12'1111.2
2015-Mar-31 23:33N 49°29' E 000°04'3 3.4
2015-Mar-31 22:32N 49°28' E 000°09'0 0.0
2015-Mar-31 21:32N 49°28' E 000°09'0 0.0
2015-Mar-31 20:29N 49°28' E 000°09'0 0.0
2015-Mar-31 19:32N 49°28' E 000°09'0 0.0
2015-Mar-31 18:32N 49°28' E 000°09'0 0.0
2015-Mar-31 17:32N 49°28' E 000°09'0 0.0
2015-Mar-31 16:32N 49°28' E 000°09'0 0.0
2015-Mar-31 15:32N 49°28' E 000°09'0 0.0
2015-Mar-31 14:32N 49°28' E 000°09'0 0.0
2015-Mar-31 13:32N 49°28' E 000°09'0 0.0
2015-Mar-31 12:32N 49°28' E 000°09'0 0.0
2015-Mar-31 11:32N 49°28' E 000°09'0 0.0
2015-Mar-31 10:32N 49°28' E 000°09'0 0.0
2015-Mar-31 09:32N 49°28' E 000°09'0 0.0
2015-Mar-31 08:32N 49°28' E 000°09'0 0.0
2015-Mar-31 07:32N 49°28' E 000°09'0 0.0
2015-Mar-31 06:29N 49°28' E 000°09'0 0.0
2015-Mar-31 05:29N 49°28' E 000°09'0 0.0
2015-Mar-31 04:32N 49°28' E 000°09'0 0.0
2015-Mar-31 03:32N 49°28' E 000°09'0 0.0
2015-Mar-31 02:32N 49°28' E 000°09'0 0.0
2015-Mar-31 01:32N 49°28' E 000°09'0 0.0
2015-Mar-31 00:32N 49°28' E 000°09'0 0.0
2015-Mar-30 23:29N 49°28' E 000°09'0 0.0
2015-Mar-30 22:32N 49°28' E 000°09'0 0.0
2015-Mar-30 21:32N 49°28' E 000°09'0 0.0
2015-Mar-30 20:32N 49°28' E 000°09'0 0.0
2015-Mar-30 19:32N 49°28' E 000°09'0 0.0
2015-Mar-30 18:32N 49°28' E 000°09'0 0.0
2015-Mar-30 17:32N 49°28' E 000°09'0 0.0
2015-Mar-30 16:32N 49°28' E 000°09'0 0.0
2015-Mar-30 15:32N 49°28' E 000°09'0 0.0
2015-Mar-30 14:32N 49°28' E 000°09'0 0.0
2015-Mar-30 13:32N 49°28' E 000°09'0 0.0
2015-Mar-30 12:32N 49°28' E 000°09'0 0.0
2015-Mar-30 11:32N 49°28' E 000°09'0 0.0
2015-Mar-30 10:32N 49°28' E 000°09'0 0.0
2015-Mar-30 09:32N 49°28' E 000°09'0 0.0
2015-Mar-30 08:32N 49°28' E 000°09'0 0.0
2015-Mar-30 07:32N 49°28' E 000°09'0 0.0
2015-Mar-30 06:32N 49°28' E 000°09'0 0.0
2015-Mar-30 05:34N 49°28' E 000°09'3 2.5
2015-Mar-30 04:33N 49°29' E 000°06'9 8.8
2015-Mar-30 03:33N 49°32' W 000°07'7 7.0
2015-Mar-30 02:33N 49°35' W 000°17'0 0.2
2015-Mar-30 01:29N 49°35' W 000°16'0 0.1
2015-Mar-30 00:32N 49°35' W 000°17'0 0.0
2015-Mar-29 23:32N 49°35' W 000°17'0 0.0
2015-Mar-29 22:32N 49°35' W 000°17'0 0.1
2015-Mar-29 21:32N 49°35' W 000°16'0 0.1
2015-Mar-29 20:32N 49°35' W 000°16'0 0.0
2015-Mar-29 19:32N 49°35' W 000°16'0 0.0
2015-Mar-29 18:32N 49°35' W 000°16'0 0.0
2015-Mar-29 17:32N 49°35' W 000°16'0 0.0
2015-Mar-29 16:32N 49°35' W 000°16'0 0.0
2015-Mar-29 15:32N 49°35' W 000°16'0 0.0
2015-Mar-29 14:32N 49°35' W 000°16'0 0.0
2015-Mar-29 13:29N 49°35' W 000°16'0 0.0
2015-Mar-29 12:32N 49°35' W 000°16'0 0.0
2015-Mar-29 11:32N 49°35' W 000°16'0 0.0
2015-Mar-29 10:32N 49°35' W 000°16'0 0.0
2015-Mar-29 09:32N 49°35' W 000°16'0 0.0
2015-Mar-29 08:32N 49°35' W 000°16'0 0.0
2015-Mar-29 07:32N 49°35' W 000°16'0 0.0
2015-Mar-29 06:29N 49°35' W 000°16'0 0.0
2015-Mar-29 05:32N 49°35' W 000°16'0 0.0
2015-Mar-29 04:32N 49°35' W 000°16'0 0.0
2015-Mar-29 03:32N 49°35' W 000°16'0 0.0
2015-Mar-29 02:32N 49°35' W 000°16'0 0.0
2015-Mar-29 01:32N 49°35' W 000°16'0 0.0
2015-Mar-29 00:32N 49°35' W 000°16'0 0.0
2015-Mar-28 23:32N 49°35' W 000°16'0 0.1
2015-Mar-28 22:32N 49°35' W 000°16'0 0.2
2015-Mar-28 21:32N 49°35' W 000°17'0 0.0
2015-Mar-28 20:32N 49°35' W 000°17'0 0.0
2015-Mar-28 19:32N 49°35' W 000°17'0 0.0
2015-Mar-28 18:32N 49°35' W 000°16'0 0.0
2015-Mar-28 17:32N 49°35' W 000°16'0 0.0
2015-Mar-28 16:32N 49°35' W 000°16'0 0.0
2015-Mar-28 15:32N 49°35' W 000°16'0 0.0
2015-Mar-28 14:29N 49°35' W 000°16'0 0.0
2015-Mar-28 13:32N 49°35' W 000°16'1 1.5
2015-Mar-28 12:33N 49°37' W 000°17'1010.3
2015-Mar-28 11:33N 49°40' W 000°32'1212.2
2015-Mar-28 10:33N 49°47' W 000°48'1211.8
2015-Mar-28 09:33N 49°54' W 001°03'3710.6
2015-Mar-28 06:05N 49°57' W 001°60'  
2015-Mar-25 08:16N 39°05' W 009°56'6 7.5
2015-Mar-25 07:26N 38°59' W 009°56'6 7.1
2015-Mar-25 06:31N 38°53' W 009°56'8 6.5
2015-Mar-25 05:16N 38°44' W 009°56'4 6.1
2015-Mar-25 04:33N 38°40' W 009°56'6 6.2
2015-Mar-25 03:32N 38°34' W 009°54'6 5.7
2015-Mar-25 02:33N 38°29' W 009°52'5 5.3
2015-Mar-25 01:33N 38°23' W 009°51'5 5.1
2015-Mar-25 00:33N 38°18' W 009°49'6 5.3
2015-Mar-24 23:29N 38°13' W 009°48'7 5.4
2015-Mar-24 22:13N 38°06' W 009°47'20 5.3
2015-Mar-24 18:24N 37°47' W 009°41'6 5.7
2015-Mar-24 17:18N 37°40' W 009°38'4 5.7
2015-Mar-24 16:32N 37°36' W 009°37'216 7.9
2015-Mar-23 13:04N 35°58' W 005°37'611.1
2015-Mar-23 12:34N 35°59' W 005°30'10 9.9
2015-Mar-23 11:34N 36°02' W 005°18'20312.6
2015-Mar-22 19:27N 36°35' W 001°10'2612.5
2015-Mar-22 17:21N 36°41' W 000°38'  
Track history (hours):
 
Tides and Currents Weather Stations Pressure Air Temp Water Temp Dewpoint Dewpoint Depression Visibility Wind Speed Wind Dir Waves Ship Positions

Cap Felix

Last reported at 2015-Apr-01 02:33 UTC. Time now 2015-May-27 07:57 UTC.
Position N 49°46' W 000°46'.
Warning: this ship's position is 56 days out of date.

Length 275 m; draft 8.9 m.

Type: Tanker. MMSI: 205517000.

Date/timePositionNaut miles runAvg speedWind from/ knotsBaromVisibWave heightAir tempDewpointWater temp
2015-Apr-01 02:33N 49°46' W 000°46'1312.7
2015-Apr-01 01:33N 49°39' W 000°29'1312.8
2015-Apr-01 00:33N 49°33' W 000°12'1111.2
2015-Mar-31 23:33N 49°29' E 000°04'3 3.4
2015-Mar-31 22:32N 49°28' E 000°09'0 0.0
2015-Mar-31 21:32N 49°28' E 000°09'0 0.0
2015-Mar-31 20:29N 49°28' E 000°09'0 0.0
2015-Mar-31 19:32N 49°28' E 000°09'0 0.0
2015-Mar-31 18:32N 49°28' E 000°09'0 0.0
2015-Mar-31 17:32N 49°28' E 000°09'0 0.0
2015-Mar-31 16:32N 49°28' E 000°09'0 0.0
2015-Mar-31 15:32N 49°28' E 000°09'0 0.0
2015-Mar-31 14:32N 49°28' E 000°09'0 0.0
2015-Mar-31 13:32N 49°28' E 000°09'0 0.0
2015-Mar-31 12:32N 49°28' E 000°09'0 0.0
2015-Mar-31 11:32N 49°28' E 000°09'0 0.0
2015-Mar-31 10:32N 49°28' E 000°09'0 0.0
2015-Mar-31 09:32N 49°28' E 000°09'0 0.0
2015-Mar-31 08:32N 49°28' E 000°09'0 0.0
2015-Mar-31 07:32N 49°28' E 000°09'0 0.0
2015-Mar-31 06:29N 49°28' E 000°09'0 0.0
2015-Mar-31 05:29N 49°28' E 000°09'0 0.0
2015-Mar-31 04:32N 49°28' E 000°09'0 0.0
2015-Mar-31 03:32N 49°28' E 000°09'0 0.0
2015-Mar-31 02:32N 49°28' E 000°09'0 0.0
2015-Mar-31 01:32N 49°28' E 000°09'0 0.0
2015-Mar-31 00:32N 49°28' E 000°09'0 0.0
2015-Mar-30 23:29N 49°28' E 000°09'0 0.0
2015-Mar-30 22:32N 49°28' E 000°09'0 0.0
2015-Mar-30 21:32N 49°28' E 000°09'0 0.0
2015-Mar-30 20:32N 49°28' E 000°09'0 0.0
2015-Mar-30 19:32N 49°28' E 000°09'0 0.0
2015-Mar-30 18:32N 49°28' E 000°09'0 0.0
2015-Mar-30 17:32N 49°28' E 000°09'0 0.0
2015-Mar-30 16:32N 49°28' E 000°09'0 0.0
2015-Mar-30 15:32N 49°28' E 000°09'0 0.0
2015-Mar-30 14:32N 49°28' E 000°09'0 0.0
2015-Mar-30 13:32N 49°28' E 000°09'0 0.0
2015-Mar-30 12:32N 49°28' E 000°09'0 0.0
2015-Mar-30 11:32N 49°28' E 000°09'0 0.0
2015-Mar-30 10:32N 49°28' E 000°09'0 0.0
2015-Mar-30 09:32N 49°28' E 000°09'0 0.0
2015-Mar-30 08:32N 49°28' E 000°09'0 0.0
2015-Mar-30 07:32N 49°28' E 000°09'0 0.0
2015-Mar-30 06:32N 49°28' E 000°09'0 0.0
2015-Mar-30 05:34N 49°28' E 000°09'3 2.5
2015-Mar-30 04:33N 49°29' E 000°06'9 8.8
2015-Mar-30 03:33N 49°32' W 000°07'7 7.0
2015-Mar-30 02:33N 49°35' W 000°17'0 0.2
2015-Mar-30 01:29N 49°35' W 000°16'0 0.1
2015-Mar-30 00:32N 49°35' W 000°17'0 0.0
2015-Mar-29 23:32N 49°35' W 000°17'0 0.0
2015-Mar-29 22:32N 49°35' W 000°17'0 0.1
2015-Mar-29 21:32N 49°35' W 000°16'0 0.1
2015-Mar-29 20:32N 49°35' W 000°16'0 0.0
2015-Mar-29 19:32N 49°35' W 000°16'0 0.0
2015-Mar-29 18:32N 49°35' W 000°16'0 0.0
2015-Mar-29 17:32N 49°35' W 000°16'0 0.0
2015-Mar-29 16:32N 49°35' W 000°16'0 0.0
2015-Mar-29 15:32N 49°35' W 000°16'0 0.0
2015-Mar-29 14:32N 49°35' W 000°16'0 0.0
2015-Mar-29 13:29N 49°35' W 000°16'0 0.0
2015-Mar-29 12:32N 49°35' W 000°16'0 0.0
2015-Mar-29 11:32N 49°35' W 000°16'0 0.0
2015-Mar-29 10:32N 49°35' W 000°16'0 0.0
2015-Mar-29 09:32N 49°35' W 000°16'0 0.0
2015-Mar-29 08:32N 49°35' W 000°16'0 0.0
2015-Mar-29 07:32N 49°35' W 000°16'0 0.0
2015-Mar-29 06:29N 49°35' W 000°16'0 0.0
2015-Mar-29 05:32N 49°35' W 000°16'0 0.0
2015-Mar-29 04:32N 49°35' W 000°16'0 0.0
2015-Mar-29 03:32N 49°35' W 000°16'0 0.0
2015-Mar-29 02:32N 49°35' W 000°16'0 0.0
2015-Mar-29 01:32N 49°35' W 000°16'0 0.0
2015-Mar-29 00:32N 49°35' W 000°16'0 0.0
2015-Mar-28 23:32N 49°35' W 000°16'0 0.1
2015-Mar-28 22:32N 49°35' W 000°16'0 0.2
2015-Mar-28 21:32N 49°35' W 000°17'0 0.0
2015-Mar-28 20:32N 49°35' W 000°17'0 0.0
2015-Mar-28 19:32N 49°35' W 000°17'0 0.0
2015-Mar-28 18:32N 49°35' W 000°16'0 0.0
2015-Mar-28 17:32N 49°35' W 000°16'0 0.0
2015-Mar-28 16:32N 49°35' W 000°16'0 0.0
2015-Mar-28 15:32N 49°35' W 000°16'0 0.0
2015-Mar-28 14:29N 49°35' W 000°16'0 0.0
2015-Mar-28 13:32N 49°35' W 000°16'1 1.5
2015-Mar-28 12:33N 49°37' W 000°17'1010.3
2015-Mar-28 11:33N 49°40' W 000°32'1212.2
2015-Mar-28 10:33N 49°47' W 000°48'1211.8
2015-Mar-28 09:33N 49°54' W 001°03'3710.6
2015-Mar-28 06:05N 49°57' W 001°60'  
2015-Mar-25 08:16N 39°05' W 009°56'6 7.5
2015-Mar-25 07:26N 38°59' W 009°56'6 7.1
2015-Mar-25 06:31N 38°53' W 009°56'8 6.5
2015-Mar-25 05:16N 38°44' W 009°56'4 6.1
2015-Mar-25 04:33N 38°40' W 009°56'6 6.2
2015-Mar-25 03:32N 38°34' W 009°54'6 5.7
2015-Mar-25 02:33N 38°29' W 009°52'5 5.3
2015-Mar-25 01:33N 38°23' W 009°51'5 5.1
2015-Mar-25 00:33N 38°18' W 009°49'6 5.3
2015-Mar-24 23:29N 38°13' W 009°48'7 5.4
2015-Mar-24 22:13N 38°06' W 009°47'20 5.3
2015-Mar-24 18:24N 37°47' W 009°41'6 5.7
2015-Mar-24 17:18N 37°40' W 009°38'4 5.7
2015-Mar-24 16:32N 37°36' W 009°37'216 7.9
2015-Mar-23 13:04N 35°58' W 005°37'611.1
2015-Mar-23 12:34N 35°59' W 005°30'10 9.9
2015-Mar-23 11:34N 36°02' W 005°18'20312.6
2015-Mar-22 19:27N 36°35' W 001°10'2612.5
2015-Mar-22 17:21N 36°41' W 000°38'  

Dump ship's entire track history